createdAt,value
2018-09-11T00:01:35.333Z,4.53
2018-09-11T00:04:04.617Z,4.80
2018-09-11T00:06:33.764Z,4.77
2018-09-11T00:09:02.853Z,4.20
2018-09-11T00:11:31.850Z,4.53
2018-09-11T00:14:00.956Z,5.23
2018-09-11T00:16:30.293Z,4.57
2018-09-11T00:18:59.413Z,5.23
2018-09-11T00:21:28.620Z,5.10
2018-09-11T00:23:57.652Z,4.70
2018-09-11T00:26:26.783Z,4.67
2018-09-11T00:28:55.849Z,4.43
2018-09-11T00:31:24.947Z,4.40
2018-09-11T00:33:54.065Z,4.90
2018-09-11T00:36:23.218Z,4.93
2018-09-11T00:38:52.391Z,5.03
2018-09-11T00:41:21.404Z,4.30
2018-09-11T00:43:50.490Z,4.77
2018-09-11T00:46:19.583Z,4.87
2018-09-11T00:48:48.837Z,5.40
2018-09-11T00:51:18.567Z,5.27
2018-09-11T00:53:47.804Z,5.50
2018-09-11T00:56:17.252Z,5.20
2018-09-11T00:58:46.549Z,4.53
2018-09-11T01:01:15.804Z,4.90
2018-09-11T01:03:45.284Z,4.67
2018-09-11T01:06:15.399Z,4.90
2018-09-11T01:08:52.134Z,4.87
2018-09-11T01:11:21.482Z,4.80
2018-09-11T01:13:50.980Z,4.80
2018-09-11T01:16:20.369Z,5.17
2018-09-11T01:18:49.599Z,4.37
2018-09-11T01:21:19.804Z,4.33
2018-09-11T01:23:49.129Z,4.53
2018-09-11T01:26:18.661Z,4.90
2018-09-11T01:28:48.433Z,5.70
2018-09-11T01:31:17.958Z,5.27
2018-09-11T01:33:47.457Z,5.47
2018-09-11T01:36:16.963Z,5.53
2018-09-11T01:38:46.701Z,4.90
2018-09-11T01:41:15.883Z,5.00
2018-09-11T01:43:45.005Z,4.73
2018-09-11T01:46:14.483Z,4.87
2018-09-11T01:48:43.514Z,5.83
2018-09-11T01:51:12.909Z,5.30
2018-09-11T01:53:42.302Z,6.03
2018-09-11T01:56:11.810Z,5.23
2018-09-11T01:58:41.241Z,5.77
2018-09-11T02:01:10.710Z,5.83
2018-09-11T02:03:40.212Z,6.10
2018-09-11T02:06:09.304Z,6.30
2018-09-11T02:08:38.950Z,6.30
2018-09-11T02:11:08.646Z,7.53
2018-09-11T02:13:37.936Z,5.83
2018-09-11T02:16:06.935Z,6.77
2018-09-11T02:18:35.928Z,6.17
2018-09-11T02:21:04.937Z,5.50
2018-09-11T02:23:34.283Z,6.57
2018-09-11T02:26:03.478Z,5.90
2018-09-11T02:28:32.719Z,6.23
2018-09-11T02:31:01.766Z,6.13
2018-09-11T02:33:30.844Z,6.37
2018-09-11T02:36:00.119Z,6.80
2018-09-11T02:38:29.318Z,6.63
2018-09-11T02:40:58.567Z,6.43
2018-09-11T02:43:27.651Z,6.70
2018-09-11T02:45:56.733Z,6.67
2018-09-11T02:48:25.919Z,7.30
2018-09-11T02:50:55.187Z,6.60
2018-09-11T02:53:24.827Z,7.07
2018-09-11T02:55:54.130Z,7.30
2018-09-11T02:58:23.211Z,7.07
2018-09-11T03:00:52.387Z,7.93
2018-09-11T03:03:21.362Z,8.60
2018-09-11T03:05:50.446Z,8.33
2018-09-11T03:08:19.691Z,7.17
2018-09-11T03:10:48.619Z,7.73
2018-09-11T03:13:17.709Z,7.40
2018-09-11T03:15:46.727Z,7.53
2018-09-11T03:18:15.954Z,8.13
2018-09-11T03:20:44.932Z,7.90
2018-09-11T03:23:14.136Z,7.53
2018-09-11T03:25:43.266Z,7.93
2018-09-11T03:28:12.607Z,7.77
2018-09-11T03:30:41.621Z,8.30
2018-09-11T03:33:10.638Z,7.60
2018-09-11T03:35:39.679Z,7.70
2018-09-11T03:38:08.675Z,8.27
2018-09-11T03:40:37.929Z,8.50
2018-09-11T03:43:06.988Z,8.60
2018-09-11T03:45:36.083Z,8.53
2018-09-11T03:48:05.144Z,8.57
2018-09-11T03:50:34.229Z,7.33
2018-09-11T03:53:03.305Z,9.17
2018-09-11T03:55:32.448Z,8.13
2018-09-11T03:58:01.742Z,7.87
2018-09-11T04:00:30.988Z,7.57
2018-09-11T04:03:00.395Z,7.60
2018-09-11T04:05:29.754Z,7.93
2018-09-11T04:07:58.932Z,7.47
2018-09-11T04:10:27.863Z,6.73
2018-09-11T04:12:57.148Z,7.20
2018-09-11T04:15:26.416Z,7.23
2018-09-11T04:17:55.527Z,7.10
2018-09-11T04:20:24.737Z,6.37
2018-09-11T04:22:54.033Z,7.17
2018-09-11T04:25:22.949Z,6.27
2018-09-11T04:27:52.102Z,6.97
2018-09-11T04:30:21.125Z,7.80
2018-09-11T04:32:50.199Z,7.63
2018-09-11T04:35:19.704Z,8.20
2018-09-11T04:37:48.900Z,7.60
2018-09-11T04:40:18.168Z,8.37
2018-09-11T04:42:47.462Z,8.83
2018-09-11T04:45:16.534Z,9.00
2018-09-11T04:47:45.589Z,8.63
2018-09-11T04:50:14.873Z,8.63
2018-09-11T04:52:43.968Z,8.33
2018-09-11T04:55:13.119Z,7.37
2018-09-11T04:57:42.436Z,7.60
2018-09-11T05:00:11.497Z,8.93
2018-09-11T05:02:40.706Z,7.73
2018-09-11T05:05:09.914Z,8.90
2018-09-11T05:07:39.233Z,7.93
2018-09-11T05:10:08.376Z,8.30
2018-09-11T05:12:37.549Z,7.97
2018-09-11T05:15:06.537Z,6.60
2018-09-11T05:17:35.589Z,7.67
2018-09-11T05:20:04.918Z,8.27
2018-09-11T05:22:34.228Z,6.60
2018-09-11T05:25:03.292Z,6.33
2018-09-11T05:27:32.433Z,6.40
2018-09-11T05:30:01.384Z,5.07
2018-09-11T05:32:30.484Z,5.57
2018-09-11T05:34:59.615Z,4.53
2018-09-11T05:37:28.773Z,4.53
2018-09-11T05:39:57.928Z,5.40
2018-09-11T05:42:27.780Z,5.10
2018-09-11T05:44:57.007Z,4.60
2018-09-11T05:47:26.049Z,4.20
2018-09-11T05:50:01.617Z,4.60
2018-09-11T05:52:30.701Z,4.30
2018-09-11T05:54:59.821Z,4.10
2018-09-11T05:57:29.086Z,4.03
2018-09-11T05:59:58.245Z,3.70
2018-09-11T06:02:27.474Z,4.97
2018-09-11T06:04:56.599Z,4.17
2018-09-11T06:07:25.778Z,3.90
2018-09-11T06:09:55.088Z,4.17
2018-09-11T06:12:24.300Z,3.70
2018-09-11T06:14:53.394Z,4.30
2018-09-11T06:17:22.499Z,3.60
2018-09-11T06:19:51.646Z,4.10
2018-09-11T06:22:20.929Z,4.25
2018-09-11T06:24:49.982Z,4.30
2018-09-11T06:27:19.128Z,4.62
2018-09-11T06:29:48.260Z,4.20
2018-09-11T06:32:17.616Z,4.37
2018-09-11T06:34:46.797Z,4.60
2018-09-11T06:37:15.958Z,4.63
2018-09-11T06:39:45.011Z,4.30
2018-09-11T06:42:14.163Z,4.80
2018-09-11T06:44:43.199Z,4.27
2018-09-11T06:47:12.482Z,3.80
2018-09-11T06:49:41.596Z,4.05
2018-09-11T06:52:10.765Z,4.17
2018-09-11T06:54:39.953Z,3.35
2018-09-11T06:57:09.361Z,3.10
2018-09-11T06:59:38.628Z,3.90
2018-09-11T07:02:08.025Z,2.85
2018-09-11T07:04:37.208Z,3.45
2018-09-11T07:07:06.669Z,3.25
2018-09-11T07:09:36.132Z,3.10
2018-09-11T07:12:05.161Z,3.05
2018-09-11T07:14:34.258Z,3.67
2018-09-11T07:17:04.406Z,3.22
2018-09-11T07:19:34.419Z,2.77
2018-09-11T07:22:03.646Z,3.33
2018-09-11T07:24:33.110Z,2.80
2018-09-11T07:27:02.376Z,2.90
2018-09-11T07:29:31.392Z,3.20
2018-09-11T07:32:00.379Z,2.90
2018-09-11T07:34:29.479Z,3.20
2018-09-11T07:36:59.021Z,3.33
2018-09-11T07:39:28.430Z,2.77
2018-09-11T07:41:57.585Z,3.08
2018-09-11T07:44:26.731Z,2.90
2018-09-11T07:46:55.886Z,3.10
2018-09-11T07:49:25.018Z,2.52
2018-09-11T07:51:54.298Z,2.80
2018-09-11T07:54:23.473Z,2.30
2018-09-11T07:56:52.636Z,2.35
2018-09-11T07:59:21.866Z,2.60
2018-09-11T08:01:50.942Z,2.37
2018-09-11T08:04:19.999Z,2.25
2018-09-11T08:06:49.040Z,2.27
2018-09-11T08:09:18.324Z,1.82
2018-09-11T08:11:47.600Z,1.95
2018-09-11T08:14:16.883Z,1.90
2018-09-11T08:16:46.277Z,1.72
2018-09-11T08:19:15.420Z,2.22
2018-09-11T08:21:44.652Z,1.98
2018-09-11T08:24:13.858Z,2.00
2018-09-11T08:26:43.160Z,1.82
2018-09-11T08:29:12.228Z,1.60
2018-09-11T08:31:41.215Z,1.27
2018-09-11T08:34:11.241Z,1.40
2018-09-11T08:36:40.412Z,1.30
2018-09-11T08:39:10.716Z,1.10
2018-09-11T08:41:39.999Z,1.22
2018-09-11T08:44:09.168Z,1.35
2018-09-11T08:46:38.386Z,1.05
2018-09-11T08:49:07.720Z,1.32
2018-09-11T08:51:36.764Z,1.30
2018-09-11T08:54:06.406Z,1.40
2018-09-11T08:56:35.165Z,1.40
2018-09-11T08:59:04.231Z,1.37
2018-09-11T09:01:33.227Z,1.45
2018-09-11T09:04:02.495Z,1.45
2018-09-11T09:06:31.734Z,1.30
2018-09-11T09:09:00.857Z,1.10
2018-09-11T09:11:30.035Z,1.10
2018-09-11T09:13:59.271Z,1.27
2018-09-11T09:16:28.932Z,1.20
2018-09-11T09:18:58.237Z,1.57
2018-09-11T09:21:27.847Z,1.30
2018-09-11T09:23:57.186Z,0.90
2018-09-11T09:26:26.535Z,1.02
2018-09-11T09:28:55.796Z,1.00
2018-09-11T09:31:24.985Z,1.65
2018-09-11T09:33:53.998Z,1.25
2018-09-11T09:36:23.283Z,1.10
2018-09-11T09:38:52.220Z,1.30
2018-09-11T09:41:21.203Z,1.10
2018-09-11T09:43:50.312Z,1.00
2018-09-11T09:46:19.324Z,1.00
2018-09-11T09:48:48.332Z,1.20
2018-09-11T09:51:17.810Z,1.20
2018-09-11T09:53:47.143Z,1.00
2018-09-11T09:56:16.294Z,1.22
2018-09-11T09:58:45.623Z,1.20
2018-09-11T10:01:20.150Z,1.20
2018-09-11T10:03:49.130Z,1.47
2018-09-11T10:06:18.275Z,1.60
2018-09-11T10:08:47.431Z,1.00
2018-09-11T10:11:16.637Z,1.20
2018-09-11T10:13:45.763Z,1.20
2018-09-11T10:16:15.121Z,1.32
2018-09-11T10:18:44.360Z,1.10
2018-09-11T10:21:13.579Z,1.05
2018-09-11T10:23:42.787Z,0.90
2018-09-11T10:26:11.979Z,0.93
2018-09-11T10:28:41.121Z,0.80
2018-09-11T10:31:10.360Z,0.98
2018-09-11T10:33:39.804Z,0.78
2018-09-11T10:36:09.630Z,1.05
2018-09-11T10:38:39.060Z,1.00
2018-09-11T10:41:08.613Z,1.10
2018-09-11T10:43:37.615Z,1.10
2018-09-11T10:46:06.715Z,1.15
2018-09-11T10:48:35.853Z,1.10
2018-09-11T10:51:04.752Z,1.42
2018-09-11T10:53:33.910Z,0.90
2018-09-11T10:56:03.261Z,1.00
2018-09-11T10:58:32.543Z,1.00
2018-09-11T11:01:01.673Z,0.90
2018-09-11T11:03:30.871Z,0.80
2018-09-11T11:05:59.899Z,0.88
2018-09-11T11:08:28.945Z,0.70
2018-09-11T11:10:58.017Z,1.22
2018-09-11T11:13:27.213Z,0.80
2018-09-11T11:15:56.227Z,1.10
2018-09-11T11:18:25.326Z,0.68
2018-09-11T11:20:54.491Z,0.85
2018-09-11T11:23:23.610Z,0.88
2018-09-11T11:25:52.905Z,0.78
2018-09-11T11:28:21.905Z,1.00
2018-09-11T11:30:50.884Z,0.95
2018-09-11T11:33:19.913Z,1.17
2018-09-11T11:35:48.961Z,0.90
2018-09-11T11:38:18.069Z,0.80
2018-09-11T11:40:47.313Z,0.80
2018-09-11T11:43:16.462Z,0.93
2018-09-11T11:45:46.055Z,1.20
2018-09-11T11:48:15.272Z,0.90
2018-09-11T11:50:44.668Z,1.00
2018-09-11T11:53:13.837Z,1.00
2018-09-11T11:55:42.975Z,1.02
2018-09-11T11:58:12.191Z,1.10
2018-09-11T12:00:41.570Z,1.00
2018-09-11T12:03:10.781Z,1.17
2018-09-11T12:05:40.127Z,1.02
2018-09-11T12:08:09.406Z,1.17
2018-09-11T12:10:38.497Z,1.20
2018-09-11T12:13:07.654Z,0.80
2018-09-11T12:15:36.668Z,1.20
2018-09-11T12:18:05.715Z,1.10
2018-09-11T12:20:35.006Z,1.50
2018-09-11T12:23:04.370Z,1.17
2018-09-11T12:25:33.629Z,1.10
2018-09-11T12:28:02.686Z,1.20
2018-09-11T12:30:32.228Z,1.40
2018-09-11T12:33:01.289Z,1.20
2018-09-11T12:35:30.700Z,1.10
2018-09-11T12:37:59.654Z,1.25
2018-09-11T12:40:28.724Z,1.40
2018-09-11T12:42:57.717Z,1.10
2018-09-11T12:45:26.955Z,1.05
2018-09-11T12:47:56.130Z,1.30
2018-09-11T12:50:25.092Z,1.07
2018-09-11T12:52:54.114Z,1.50
2018-09-11T12:55:23.209Z,1.32
2018-09-11T12:57:53.286Z,1.32
2018-09-11T13:00:22.405Z,1.30
2018-09-11T13:02:54.491Z,1.37
2018-09-11T13:05:23.845Z,1.20
2018-09-11T13:07:53.087Z,1.20
2018-09-11T13:10:22.444Z,1.77
2018-09-11T13:12:51.765Z,1.22
2018-09-11T13:15:20.988Z,1.20
2018-09-11T13:17:50.527Z,1.35
2018-09-11T13:20:19.692Z,1.50
2018-09-11T13:22:49.000Z,1.57
2018-09-11T13:25:18.379Z,1.27
2018-09-11T13:27:47.634Z,1.20
2018-09-11T13:30:16.895Z,1.70
2018-09-11T13:32:46.266Z,1.55
2018-09-11T13:35:15.404Z,1.62
2018-09-11T13:37:44.441Z,1.50
2018-09-11T13:40:13.590Z,1.40
2018-09-11T13:42:42.987Z,1.70
2018-09-11T13:45:12.050Z,1.60
2018-09-11T13:47:41.350Z,1.80
2018-09-11T13:50:10.452Z,1.55
2018-09-11T13:52:39.570Z,1.50
2018-09-11T13:55:11.842Z,1.77
2018-09-11T13:57:41.241Z,1.27
2018-09-11T14:00:10.465Z,1.50
2018-09-11T14:02:40.064Z,1.60
2018-09-11T14:05:09.381Z,1.80
2018-09-11T14:07:38.617Z,1.60
2018-09-11T14:10:07.986Z,1.85
2018-09-11T14:12:37.234Z,2.40
2018-09-11T14:15:07.405Z,1.70
2018-09-11T14:17:36.550Z,1.60
2018-09-11T14:20:06.421Z,1.62
2018-09-11T14:22:35.966Z,1.85
2018-09-11T14:25:05.277Z,1.60
2018-09-11T14:27:34.643Z,1.87
2018-09-11T14:30:03.945Z,1.80
2018-09-11T14:32:33.681Z,1.60
2018-09-11T14:35:02.888Z,1.82
2018-09-11T14:37:32.178Z,2.10
2018-09-11T14:40:01.360Z,1.62
2018-09-11T14:42:30.457Z,1.55
2018-09-11T14:45:00.023Z,1.90
2018-09-11T14:47:33.401Z,1.87
2018-09-11T14:50:02.561Z,1.80
2018-09-11T14:52:31.745Z,1.62
2018-09-11T14:55:00.881Z,1.75
2018-09-11T14:57:30.062Z,1.62
2018-09-11T14:59:59.316Z,2.00
2018-09-11T15:02:28.322Z,2.00
2018-09-11T15:04:57.454Z,1.92
2018-09-11T15:07:26.745Z,1.67
2018-09-11T15:09:55.836Z,2.05
2018-09-11T15:12:24.952Z,1.92
2018-09-11T15:14:54.248Z,3.15
2018-09-11T15:17:23.278Z,2.60
2018-09-11T15:19:52.304Z,2.70
2018-09-11T15:22:21.557Z,2.25
2018-09-11T15:24:50.503Z,1.75
2018-09-11T15:27:19.696Z,1.87
2018-09-11T15:29:48.697Z,2.05
2018-09-11T15:32:17.780Z,1.72
2018-09-11T15:34:46.770Z,2.55
2018-09-11T15:37:15.800Z,1.80
2018-09-11T15:39:44.843Z,1.90
2018-09-11T15:42:13.968Z,1.90
2018-09-11T15:44:43.082Z,1.55
2018-09-11T15:47:12.189Z,1.98
2018-09-11T15:49:41.245Z,2.20
2018-09-11T15:52:10.447Z,2.12
2018-09-11T15:54:39.457Z,2.27
2018-09-11T15:57:08.490Z,2.05
2018-09-11T15:59:37.632Z,2.80
2018-09-11T16:02:08.029Z,2.50
2018-09-11T16:04:37.209Z,2.60
2018-09-11T16:07:06.632Z,1.80
2018-09-11T16:09:35.888Z,2.15
2018-09-11T16:12:05.153Z,2.30
2018-09-11T16:14:34.345Z,1.85
2018-09-11T16:17:03.579Z,2.10
2018-09-11T16:19:32.966Z,2.35
2018-09-11T16:22:02.328Z,2.30
2018-09-11T16:24:31.584Z,2.12
2018-09-11T16:27:00.855Z,1.92
2018-09-11T16:29:30.242Z,2.20
2018-09-11T16:31:59.507Z,2.08
2018-09-11T16:34:28.882Z,2.40
2018-09-11T16:36:58.187Z,2.25
2018-09-11T16:39:27.393Z,1.92
2018-09-11T16:41:56.702Z,2.25
2018-09-11T16:44:26.053Z,2.10
2018-09-11T16:46:55.208Z,2.05
2018-09-11T16:49:24.556Z,1.80
2018-09-11T16:51:53.858Z,2.10
2018-09-11T16:54:23.114Z,1.98
2018-09-11T16:56:52.373Z,2.25
2018-09-11T16:59:21.503Z,2.37
2018-09-11T17:01:50.941Z,2.10
2018-09-11T17:04:20.050Z,2.05
2018-09-11T17:06:49.420Z,1.98
2018-09-11T17:09:18.613Z,2.65
2018-09-11T17:11:47.926Z,2.10
2018-09-11T17:14:17.342Z,2.10
2018-09-11T17:16:46.700Z,1.95
2018-09-11T17:19:15.898Z,2.05
2018-09-11T17:21:45.153Z,2.22
2018-09-11T17:24:14.401Z,2.20
2018-09-11T17:26:43.630Z,2.30
2018-09-11T17:29:13.167Z,2.10
2018-09-11T17:31:42.707Z,2.20
2018-09-11T17:34:11.897Z,2.40
2018-09-11T17:36:41.179Z,1.92
2018-09-11T17:39:11.799Z,2.72
2018-09-11T17:41:41.719Z,2.20
2018-09-11T17:44:11.078Z,2.72
2018-09-11T17:46:40.303Z,1.72
2018-09-11T17:49:09.651Z,2.35
2018-09-11T17:51:38.977Z,2.70
2018-09-11T17:54:08.082Z,3.02
2018-09-11T17:56:37.200Z,2.55
2018-09-11T17:59:06.549Z,2.67
2018-09-11T18:01:35.799Z,2.98
2018-09-11T18:04:05.066Z,2.42
2018-09-11T18:06:34.306Z,2.50
2018-09-11T18:09:04.314Z,2.47
2018-09-11T18:11:33.467Z,3.02
2018-09-11T18:14:02.863Z,2.33
2018-09-11T18:16:32.076Z,2.42
2018-09-11T18:19:01.314Z,2.80
2018-09-11T18:21:30.496Z,2.90
2018-09-11T18:23:59.813Z,4.12
2018-09-11T18:26:29.084Z,3.15
2018-09-11T18:28:58.378Z,2.40
2018-09-11T18:31:27.583Z,2.77
2018-09-11T18:33:56.733Z,2.35
2018-09-11T18:36:26.035Z,2.67
2018-09-11T18:38:55.484Z,2.62
2018-09-11T18:41:24.784Z,1.70
2018-09-11T18:43:53.973Z,2.23
2018-09-11T18:46:23.513Z,2.10
2018-09-11T18:48:52.837Z,2.33
2018-09-11T18:51:22.163Z,1.83
2018-09-11T18:53:51.426Z,1.93
2018-09-11T18:56:20.712Z,2.07
2018-09-11T18:58:50.146Z,1.80
2018-09-11T19:01:19.303Z,1.80
2018-09-11T19:03:48.513Z,2.00
2018-09-11T19:06:17.735Z,2.03
2018-09-11T19:08:46.947Z,2.00
2018-09-11T19:11:16.213Z,2.40
2018-09-11T19:13:45.442Z,2.17
2018-09-11T19:16:14.753Z,2.43
2018-09-11T19:18:43.945Z,2.43
2018-09-11T19:21:13.252Z,2.33
2018-09-11T19:23:42.453Z,2.20
2018-09-11T19:26:12.674Z,1.90
2018-09-11T19:28:42.795Z,2.40
2018-09-11T19:31:12.991Z,2.20
2018-09-11T19:33:42.933Z,2.17
2018-09-11T19:36:12.520Z,2.20
2018-09-11T19:38:41.801Z,2.33
2018-09-11T19:41:11.533Z,2.40
2018-09-11T19:43:41.244Z,2.47
2018-09-11T19:46:10.463Z,2.90
2018-09-11T19:48:39.968Z,3.30
2018-09-11T19:51:09.164Z,3.17
2018-09-11T19:53:38.373Z,2.90
2018-09-11T19:56:10.927Z,2.20
2018-09-11T19:58:40.276Z,2.40
2018-09-11T20:01:09.461Z,2.30
2018-09-11T20:03:38.687Z,2.13
2018-09-11T20:06:07.842Z,2.20
2018-09-11T20:08:37.066Z,2.50
2018-09-11T20:11:06.319Z,2.07
2018-09-11T20:13:35.374Z,2.40
2018-09-11T20:16:04.578Z,2.10
2018-09-11T20:18:34.000Z,2.73
2018-09-11T20:21:03.148Z,2.20
2018-09-11T20:23:32.336Z,2.70
2018-09-11T20:26:01.524Z,2.40
2018-09-11T20:28:30.709Z,2.60
2018-09-11T20:30:59.882Z,2.70
2018-09-11T20:33:29.276Z,2.50
2018-09-11T20:35:58.468Z,2.80
2018-09-11T20:38:27.590Z,2.43
2018-09-11T20:40:56.714Z,1.90
2018-09-11T20:43:25.831Z,2.43
2018-09-11T20:45:55.040Z,2.00
2018-09-11T20:48:24.283Z,2.20
2018-09-11T20:50:53.631Z,2.20
2018-09-11T20:53:23.052Z,1.90
2018-09-11T20:55:52.293Z,1.93
2018-09-11T20:58:21.425Z,2.30
2018-09-11T21:00:50.680Z,2.30
2018-09-11T21:03:19.816Z,2.00
2018-09-11T21:05:48.949Z,2.00
2018-09-11T21:08:18.226Z,2.53
2018-09-11T21:10:47.461Z,1.93
2018-09-11T21:13:16.633Z,1.90
2018-09-11T21:15:45.968Z,2.00
2018-09-11T21:18:15.162Z,1.80
2018-09-11T21:20:44.421Z,2.10
2018-09-11T21:23:13.475Z,3.00
2018-09-11T21:25:42.680Z,2.90
2018-09-11T21:28:11.839Z,3.33
2018-09-11T21:30:41.044Z,2.30
2018-09-11T21:33:10.287Z,3.07
2018-09-11T21:35:39.481Z,3.43
2018-09-11T21:38:08.678Z,2.97
2018-09-11T21:40:38.000Z,3.03
2018-09-11T21:43:07.207Z,2.83
2018-09-11T21:45:36.434Z,3.10
2018-09-11T21:48:05.782Z,3.00
2018-09-11T21:50:35.074Z,3.77
2018-09-11T21:53:04.274Z,3.80
2018-09-11T21:55:33.484Z,3.33
2018-09-11T21:58:02.655Z,3.60
2018-09-11T22:00:31.996Z,3.30
2018-09-11T22:03:04.160Z,2.87
2018-09-11T22:05:34.387Z,3.30
2018-09-11T22:08:03.675Z,3.37
2018-09-11T22:10:32.929Z,3.50
2018-09-11T22:13:03.235Z,3.73
2018-09-11T22:15:32.387Z,3.17
2018-09-11T22:18:01.697Z,3.63
2018-09-11T22:20:30.820Z,3.00
2018-09-11T22:23:05.462Z,3.13
2018-09-11T22:25:35.583Z,3.27
2018-09-11T22:28:04.669Z,3.87
2018-09-11T22:30:39.829Z,3.10
2018-09-11T22:33:17.029Z,3.20
2018-09-11T22:35:47.270Z,2.97
2018-09-11T22:38:16.554Z,3.60
2018-09-11T22:40:45.929Z,3.07
2018-09-11T22:43:15.407Z,2.77
2018-09-11T22:45:47.517Z,2.60
2018-09-11T22:48:16.655Z,2.40
2018-09-11T22:50:45.782Z,2.70
2018-09-11T22:53:15.015Z,2.93
2018-09-11T22:55:44.101Z,3.20
2018-09-11T22:58:13.196Z,3.20
2018-09-11T23:00:42.389Z,3.60
2018-09-11T23:03:11.767Z,3.40
2018-09-11T23:05:40.957Z,4.20
2018-09-11T23:08:10.138Z,4.13
2018-09-11T23:10:39.397Z,3.87
2018-09-11T23:13:08.447Z,3.30
2018-09-11T23:15:37.490Z,3.47
2018-09-11T23:18:06.535Z,3.63
2018-09-11T23:20:35.611Z,3.10
2018-09-11T23:23:04.756Z,3.53
2018-09-11T23:25:34.095Z,3.70
2018-09-11T23:28:03.183Z,3.43
2018-09-11T23:30:32.243Z,3.10
2018-09-11T23:33:01.445Z,3.33
2018-09-11T23:35:30.721Z,3.67
2018-09-11T23:37:59.922Z,3.53
2018-09-11T23:40:29.095Z,3.17
2018-09-11T23:42:58.297Z,3.60
2018-09-11T23:45:27.353Z,3.20
2018-09-11T23:47:56.544Z,3.53
2018-09-11T23:50:25.738Z,3.37
2018-09-11T23:52:54.795Z,3.63
2018-09-11T23:55:23.717Z,3.27
2018-09-11T23:57:52.986Z,3.07
